Time;durP1;ratioP1;P1;durP2;ratioP2;P2;SDS_P1;SDS_P2;PMS_P1;PMS_P2;Temp;Humidity;BMP_temperature;BMP_pressure;BME280_temperature;BME280_humidity;BME280_pressure;Samples;Min_cycle;Max_cycle;Signal;HPM_P1;HPM_P2
2022/04/26 03:36:11;;;;;;;15.63;7.00;;;;;;;6.83;83.70;100423.13;3564121;81;98840;-81
2022/04/26 03:41:12;;;;;;;17.48;6.28;;;;;;;6.83;83.56;100428.02;3555147;81;98872;-81
2022/04/26 03:46:13;;;;;;;16.87;7.03;;;;;;;6.83;83.31;100445.80;3548813;83;98571;-81
2022/04/26 03:51:14;;;;;;;15.43;6.73;;;;;;;6.83;83.30;100437.59;3562719;81;98826;-81
2022/04/26 03:56:15;;;;;;;13.80;6.37;;;;;;;6.82;83.19;100440.70;3556579;81;98590;-81
2022/04/26 04:01:16;;;;;;;14.30;6.93;;;;;;;6.79;83.34;100444.93;3563046;81;98668;-81
2022/04/26 04:06:17;;;;;;;13.77;5.93;;;;;;;6.77;83.51;100449.94;3568697;82;98515;-81
2022/04/26 04:11:18;;;;;;;15.03;7.13;;;;;;;6.77;83.42;100451.89;3560956;81;98750;-81
2022/04/26 04:16:19;;;;;;;11.77;6.37;;;;;;;6.76;83.46;100453.05;3568588;81;98717;-82
2022/04/26 04:21:20;;;;;;;14.10;6.57;;;;;;;6.77;83.46;100458.73;3562423;81;99111;-81
2022/04/26 04:26:21;;;;;;;13.27;6.60;;;;;;;6.76;83.71;100467.50;3551315;83;99223;-81
2022/04/26 04:31:22;;;;;;;13.50;7.28;;;;;;;6.77;83.79;100481.39;3536624;82;98676;-80
2022/04/26 04:36:23;;;;;;;14.43;6.90;;;;;;;6.79;83.71;100481.05;3528513;82;98507;-80
2022/04/26 04:41:24;;;;;;;13.87;6.33;;;;;;;6.81;84.00;100482.88;3527375;82;98926;-80
2022/04/26 04:46:25;;;;;;;13.10;6.63;;;;;;;6.80;84.03;100493.02;3519780;83;98621;-81
2022/04/26 04:51:26;;;;;;;13.03;5.73;;;;;;;6.84;83.91;100498.02;3536152;82;98614;-81
2022/04/26 04:56:28;;;;;;;11.53;5.67;;;;;;;6.88;83.91;100505.72;3543329;83;98595;-81
2022/04/26 05:01:29;;;;;;;13.20;6.40;;;;;;;6.92;84.03;100503.88;3535614;82;98481;-81
2022/04/26 05:06:30;;;;;;;13.23;6.00;;;;;;;6.94;83.90;100509.82;3540483;82;98539;-81
2022/04/26 05:11:31;;;;;;;14.07;6.67;;;;;;;7.01;83.93;100517.41;3536563;83;98495;-81
2022/04/26 05:16:32;;;;;;;13.05;5.80;;;;;;;7.07;83.81;100517.36;3535121;82;98709;-81
2022/04/26 05:21:34;;;;;;;12.75;6.12;;;;;;;7.12;83.56;100516.55;3534037;82;98849;-81
2022/04/26 05:26:35;;;;;;;12.97;6.37;;;;;;;7.17;83.39;100517.66;3525942;82;98603;-81
2022/04/26 05:31:36;;;;;;;15.93;5.90;;;;;;;7.22;83.06;100522.88;3507056;82;98657;-81
2022/04/26 05:36:37;;;;;;;10.90;5.63;;;;;;;7.32;83.00;100525.06;3512616;82;98469;-81
2022/04/26 05:41:38;;;;;;;13.90;5.50;;;;;;;7.45;82.80;100529.88;3499977;83;98638;-81
2022/04/26 05:46:39;;;;;;;12.40;5.47;;;;;;;7.54;82.84;100529.14;3509630;82;98607;-80
2022/04/26 05:51:40;;;;;;;13.87;6.03;;;;;;;7.69;82.68;100528.34;3504947;82;98898;-81
2022/04/26 05:56:42;;;;;;;13.28;6.30;;;;;;;7.85;82.47;100536.75;3514392;84;98492;-81
2022/04/26 06:01:43;;;;;;;11.88;6.28;;;;;;;7.97;81.98;100529.78;3506580;82;98941;-80
2022/04/26 06:06:44;;;;;;;12.57;5.40;;;;;;;8.12;81.72;100535.81;3513837;84;98362;-81
2022/04/26 06:11:46;;;;;;;11.33;5.90;;;;;;;8.29;80.81;100546.40;3504294;82;98701;-81
2022/04/26 06:16:47;;;;;;;10.07;4.33;;;;;;;8.48;80.95;100540.14;3512538;82;98794;-83
2022/04/26 06:21:48;;;;;;;11.13;4.80;;;;;;;8.72;80.12;100544.00;3507364;83;98859;-81
2022/04/26 06:26:49;;;;;;;11.60;5.47;;;;;;;8.94;79.18;100546.78;3534752;82;99030;-81
2022/04/26 06:31:50;;;;;;;10.13;4.57;;;;;;;9.27;79.47;100546.23;3540455;82;98808;-82
2022/04/26 06:36:51;;;;;;;9.20;4.40;;;;;;;9.63;78.04;100537.42;3548358;82;32471;-83
2022/04/26 06:41:52;;;;;;;12.33;4.20;;;;;;;9.93;77.24;100533.59;3542436;82;98623;-86
2022/04/26 06:46:53;;;;;;;8.93;4.60;;;;;;;10.22;75.31;100538.39;3547478;82;98873;-85
2022/04/26 06:51:54;;;;;;;9.57;4.50;;;;;;;10.41;74.77;100541.00;3531933;82;98840;-85
2022/04/26 06:56:55;;;;;;;12.10;4.97;;;;;;;10.61;73.38;100541.64;3542896;82;98813;-86
2022/04/26 07:01:56;;;;;;;10.35;5.40;;;;;;;10.76;72.39;100548.91;3537133;82;99343;-86
2022/04/26 07:06:57;;;;;;;11.57;5.17;;;;;;;10.85;72.41;100546.67;3532303;82;32525;-84
2022/04/26 07:11:58;;;;;;;9.18;4.40;;;;;;;10.94;71.20;100549.33;3538853;82;98955;-85
2022/04/26 07:17:00;;;;;;;10.80;4.73;;;;;;;11.04;70.20;100547.86;3542670;82;98880;-84
2022/04/26 07:22:03;;;;;;;9.43;5.15;;;;;;;11.10;67.83;100554.05;3539692;82;99172;-85
2022/04/26 07:27:04;;;;;;;10.03;4.85;;;;;;;11.08;67.17;100562.47;3535116;82;98845;-85
2022/04/26 07:32:06;;;;;;;10.07;4.57;;;;;;;11.08;67.17;100562.47;3534692;82;99112;-85
2022/04/26 07:37:07;;;;;;;10.15;4.28;;;;;;;11.10;66.31;100563.68;3543249;82;32580;-85
2022/04/26 07:42:09;;;;;;;9.93;4.37;;;;;;;11.06;66.76;100557.33;3531810;82;99187;-86
2022/04/26 07:47:10;;;;;;;8.63;4.58;;;;;;;11.32;65.21;100560.55;3537031;82;98891;-86
2022/04/26 07:52:11;;;;;;;9.57;4.43;;;;;;;11.32;65.21;100560.55;3535616;82;98934;-84
2022/04/26 07:57:12;;;;;;;9.50;4.47;;;;;;;11.21;64.54;100565.97;3544126;82;98856;-86
2022/04/26 08:02:12;;;;;;;8.63;4.07;;;;;;;11.33;64.80;100568.45;3533766;82;98894;-85
2022/04/26 08:07:13;;;;;;;12.13;4.20;;;;;;;11.49;64.21;100575.09;3540729;82;26300;-84
2022/04/26 08:12:14;;;;;;;8.00;3.67;;;;;;;11.62;63.90;100577.82;3535910;82;98950;-84
2022/04/26 08:17:16;;;;;;;9.37;3.60;;;;;;;11.77;62.15;100578.16;3544001;83;98963;-84
2022/04/26 08:22:17;;;;;;;7.47;3.83;;;;;;;12.20;63.17;100581.42;3536102;82;98936;-84
2022/04/26 08:27:30;;;;;;;6.80;3.15;;;;;;;12.72;64.15;100587.86;3533465;80;99162;-84
2022/04/26 08:32:46;;;;;;;6.57;3.10;;;;;;;13.47;62.71;100582.23;3538803;82;99027;-82
2022/04/26 08:37:48;;;;;;;6.05;2.95;;;;;;;14.42;62.50;100584.41;3540961;82;32444;-83
2022/04/26 08:42:51;;;;;;;7.20;3.45;;;;;;;15.66;62.18;100598.16;3533891;82;99102;-84
2022/04/26 08:53:16;;;;;;;7.10;3.67;;;;;;;17.05;56.55;100595.84;3522866;81;98904;-84
2022/04/26 08:58:22;;;;;;;6.97;3.27;;;;;;;18.03;57.06;100588.24;3531794;83;99294;-85
2022/04/26 09:03:23;;;;;;;10.95;3.75;;;;;;;18.98;54.54;100588.69;3523945;82;99128;-86
2022/04/26 09:08:24;;;;;;;5.25;3.40;;;;;;;19.93;52.17;100585.95;3534987;82;99289;-83
2022/04/26 09:13:25;;;;;;;6.30;3.20;;;;;;;20.79;53.30;100602.28;3526378;82;99071;-85
2022/04/26 09:18:30;;;;;;;5.17;3.10;;;;;;;21.69;51.84;100599.43;3539083;82;98640;-85
2022/04/26 09:23:32;;;;;;;8.37;3.03;;;;;;;23.04;46.36;100589.56;3529585;82;98844;-83
2022/04/26 09:28:35;;;;;;;6.05;2.62;;;;;;;23.04;46.36;100589.56;3501731;82;99333;-86
2022/04/26 09:33:40;;;;;;;5.78;3.20;;;;;;;22.99;46.11;100603.42;3488817;83;98749;-85
2022/04/26 09:39:00;;;;;;;5.62;2.87;;;;;;;23.12;45.09;100595.70;3491419;83;99450;-85
2022/04/26 09:44:08;;;;;;;8.53;4.33;;;;;;;23.18;43.10;100594.69;3482574;83;99307;-86
2022/04/26 09:49:11;;;;;;;5.25;2.77;;;;;;;23.69;44.15;100597.30;3503706;83;27461;-86
2022/04/26 09:54:12;;;;;;;5.75;3.05;;;;;;;24.05;41.53;100597.46;3488818;83;99110;-85
2022/04/26 09:59:21;;;;;;;5.47;2.92;;;;;;;24.09;42.04;100589.64;3488527;83;99161;-85
2022/04/26 10:04:26;;;;;;;4.25;2.42;;;;;;;24.27;40.68;100591.10;3482115;83;98956;-85
2022/04/26 10:09:27;;;;;;;8.10;3.02;;;;;;;24.25;40.14;100590.77;3499985;83;98867;-85
2022/04/26 10:14:30;;;;;;;8.55;3.10;;;;;;;23.79;39.23;100595.30;3482106;83;98882;-86
2022/04/26 10:19:47;;;;;;;5.97;3.10;;;;;;;22.98;38.64;100594.81;3490048;83;27378;-84
2022/04/26 10:25:09;;;;;;;5.65;2.90;;;;;;;23.18;40.20;100597.50;3480504;83;98730;-85
2022/04/26 10:30:10;;;;;;;6.70;3.17;;;;;;;23.67;39.64;100599.00;3544193;82;98999;-85
2022/04/26 10:35:29;;;;;;;7.30;2.95;;;;;;;23.18;36.64;100588.28;3532970;82;98806;-84
2022/04/26 10:40:30;;;;;;;4.33;2.67;;;;;;;23.18;37.40;100593.89;3543025;82;99187;-85
2022/04/26 10:45:31;;;;;;;5.85;3.17;;;;;;;22.84;39.28;100588.33;3540192;82;98850;-83
2022/04/26 10:50:32;;;;;;;6.08;3.58;;;;;;;22.90;37.57;100589.30;3546684;82;98885;-86
2022/04/26 10:55:33;;;;;;;5.97;2.75;;;;;;;21.99;36.45;100586.26;3529667;83;98695;-85
2022/04/26 11:00:35;;;;;;;5.45;2.85;;;;;;;22.15;39.21;100589.53;3541889;83;98597;-85
2022/04/26 11:05:38;;;;;;;5.37;2.67;;;;;;;22.37;38.40;100586.16;3536599;83;98590;-85
2022/04/26 11:16:13;;;;;;;4.65;2.67;;;;;;;23.28;37.89;100579.44;3538016;82;98791;-86
2022/04/26 11:21:14;;;;;;;4.83;2.65;;;;;;;23.07;36.83;100576.63;3537340;82;99164;-85
2022/04/26 11:31:41;;;;;;;4.33;2.67;;;;;;;21.90;37.54;100594.55;3546655;81;98842;-85
2022/04/26 11:36:42;;;;;;;5.08;2.80;;;;;;;21.92;38.46;100594.91;3563795;82;98344;-85
2022/04/26 11:41:44;;;;;;;6.00;2.60;;;;;;;21.94;36.75;100591.62;3555065;82;99146;-85
2022/04/26 11:47:00;;;;;;;4.83;2.40;;;;;;;21.47;37.12;100606.13;3559006;81;98908;-85
2022/04/26 11:52:01;;;;;;;6.15;2.77;;;;;;;21.02;38.22;100611.84;3554061;82;99243;-86
2022/04/26 11:57:04;;;;;;;4.72;2.35;;;;;;;20.74;36.03;100600.63;3543688;82;99296;-85
2022/04/26 12:02:06;;;;;;;4.22;2.77;;;;;;;20.14;37.55;100609.20;3556459;81;99186;-83
2022/04/26 12:07:07;;;;;;;5.40;2.62;;;;;;;20.22;38.81;100607.80;3562129;81;33919;-83
2022/04/26 12:12:10;;;;;;;3.52;2.02;;;;;;;20.40;38.46;100598.96;3556529;82;98842;-85
2022/04/26 12:17:18;;;;;;;5.33;2.65;;;;;;;20.34;38.98;100597.92;3560436;82;98728;-86
2022/04/26 12:22:19;;;;;;;4.58;2.45;;;;;;;20.26;38.99;100601.51;3555691;82;98986;-84
2022/04/26 12:27:22;;;;;;;5.22;2.60;;;;;;;20.19;39.39;100598.11;3554999;81;98749;-85
2022/04/26 12:32:26;;;;;;;6.60;3.20;;;;;;;20.18;39.07;100588.95;3529959;82;98945;-85
2022/04/26 12:37:29;;;;;;;7.50;2.77;;;;;;;19.93;38.82;100586.55;3533300;82;34106;-85
2022/04/26 12:42:38;;;;;;;6.55;2.90;;;;;;;19.59;38.33;100582.78;3532950;82;99188;-85
2022/04/26 12:53:08;;;;;;;4.58;2.20;;;;;;;20.35;39.13;100584.91;3515600;83;99249;-85
2022/04/26 12:58:11;;;;;;;5.65;3.02;;;;;;;20.28;39.58;100589.27;3521103;82;98768;-85
2022/04/26 13:03:19;;;;;;;4.65;2.37;;;;;;;20.30;38.93;100588.83;3532006;82;98872;-85
2022/04/26 13:08:20;;;;;;;6.35;2.70;;;;;;;20.01;38.86;100584.53;3542077;82;98869;-85
2022/04/26 13:13:21;;;;;;;5.62;2.58;;;;;;;19.92;39.13;100583.59;3513525;82;98987;-85
2022/04/26 13:18:23;;;;;;;6.30;2.72;;;;;;;20.18;38.84;100576.98;3523986;83;99182;-83
2022/04/26 13:23:24;;;;;;;4.55;2.58;;;;;;;20.36;39.35;100577.30;3529563;82;99112;-84
2022/04/26 13:28:25;;;;;;;6.80;3.00;;;;;;;20.84;39.36;100570.97;3538760;82;99313;-84
2022/04/26 13:33:26;;;;;;;5.95;2.83;;;;;;;20.78;38.76;100573.34;3536096;82;98915;-84
2022/04/26 13:38:28;;;;;;;5.25;2.98;;;;;;;21.11;39.66;100567.21;3540531;81;98905;-84
2022/04/26 13:43:29;;;;;;;6.33;2.55;;;;;;;21.21;37.49;100566.72;3537905;82;98896;-83
2022/04/26 13:48:30;;;;;;;5.55;2.52;;;;;;;20.84;37.03;100570.97;3543162;82;98763;-86
2022/04/26 13:53:31;;;;;;;8.23;2.55;;;;;;;20.59;37.72;100576.45;3537919;82;98923;-85
2022/04/26 13:58:32;;;;;;;6.17;3.05;;;;;;;20.16;36.94;100576.64;3530208;80;98856;-84
2022/04/26 14:03:33;;;;;;;6.00;3.10;;;;;;;19.61;37.38;100580.96;3533921;83;99014;-85
2022/04/26 14:08:36;;;;;;;7.03;2.72;;;;;;;19.26;37.90;100574.77;3549769;82;99166;-86
2022/04/26 14:21:47;;;;;;;5.58;2.50;;;;;;;19.03;37.54;100574.21;3542012;82;98706;-85
2022/04/26 14:24:03;;;;;;;4.35;2.37;;;;;;;18.76;39.35;100585.36;3538285;82;99214;-85
2022/04/26 14:29:02;;;;;;;5.95;2.60;;;;;;;18.41;37.88;100572.07;3552446;82;98873;-83
2022/04/26 14:34:03;;;;;;;5.80;2.40;;;;;;;18.06;38.29;100579.64;3529512;82;98863;-83
2022/04/26 14:39:04;;;;;;;5.90;2.40;;;;;;;17.94;38.77;100579.63;3543504;81;99087;-84
2022/04/26 14:44:06;;;;;;;5.00;2.35;;;;;;;17.97;40.58;100578.00;3535776;82;99341;-85
2022/04/26 14:49:07;;;;;;;7.28;3.25;;;;;;;18.12;40.49;100579.34;3548386;82;33006;-80
2022/04/26 14:54:08;;;;;;;6.50;2.60;;;;;;;17.90;38.99;100580.31;3531859;82;99019;-83
2022/04/26 14:59:12;;;;;;;5.80;2.67;;;;;;;17.98;41.61;100579.59;3542067;82;99132;-82
2022/04/26 15:04:13;;;;;;;3.40;2.00;;;;;;;18.01;40.17;100573.96;3535067;82;98803;-82
2022/04/26 15:19:54;;;;;;;4.37;2.35;;;;;;;18.36;41.55;100571.20;3541351;82;100040;-82
2022/04/26 15:24:55;;;;;;;6.65;2.83;;;;;;;18.22;41.08;100563.85;3538526;81;98816;-82
2022/04/26 15:29:56;;;;;;;4.50;2.40;;;;;;;18.23;41.95;100572.98;3538540;82;98660;-83
2022/04/26 15:34:57;;;;;;;5.35;2.58;;;;;;;18.20;41.66;100574.61;3535110;82;98796;-82
2022/04/26 15:39:58;;;;;;;9.00;4.40;;;;;;;18.07;41.18;100567.28;3543351;82;99194;-82
2022/04/26 15:45:01;;;;;;;4.42;2.22;;;;;;;18.03;41.36;100574.31;3531505;83;98840;-83
2022/04/26 15:50:05;;;;;;;4.03;2.12;;;;;;;17.90;40.84;100574.74;3543114;82;99201;-82
2022/04/26 15:55:05;;;;;;;5.37;2.20;;;;;;;17.78;41.18;100571.17;3540682;82;98531;-83
2022/04/26 16:00:10;;;;;;;6.35;1.90;;;;;;;17.78;42.45;100572.56;3549978;82;98676;-82
2022/04/26 16:05:12;;;;;;;4.22;1.90;;;;;;;17.74;41.47;100569.03;3531692;82;98802;-83
2022/04/26 16:20:53;;;;;;;7.35;2.42;;;;;;;17.46;42.64;100573.64;3529592;82;98889;-82
2022/04/26 16:25:54;;;;;;;4.87;2.15;;;;;;;17.31;42.04;100572.82;3539672;82;31603;-82
2022/04/26 16:30:55;;;;;;;6.20;3.00;;;;;;;17.23;42.93;100569.97;3535606;83;110438;-83
2022/04/26 16:35:56;;;;;;;6.05;2.58;;;;;;;17.14;42.96;100576.63;3546359;82;99276;-83
2022/04/26 16:40:57;;;;;;;3.75;2.35;;;;;;;17.04;43.65;100578.36;3529270;82;98809;-82
2022/04/26 16:45:58;;;;;;;5.10;2.60;;;;;;;17.00;43.79;100581.00;3539567;82;98779;-83
2022/04/26 16:50:59;;;;;;;5.85;2.98;;;;;;;16.95;42.92;100583.63;3539434;82;99159;-83
2022/04/26 16:56:00;;;;;;;5.35;2.77;;;;;;;16.75;42.95;100586.06;3542076;82;98792;-83
2022/04/26 17:01:01;;;;;;;7.15;4.00;;;;;;;16.63;43.97;100587.38;3519992;82;98777;-82
2022/04/26 17:06:03;;;;;;;6.42;2.80;;;;;;;16.54;44.00;100594.04;3543917;82;98751;-83
2022/04/26 17:16:23;;;;;;;4.35;2.55;;;;;;;16.33;44.09;100608.11;3541949;82;99202;-83
2022/04/26 17:21:24;;;;;;;8.60;3.10;;;;;;;16.28;43.91;100614.10;3535564;82;98925;-85
2022/04/26 17:26:25;;;;;;;6.03;2.70;;;;;;;16.00;43.94;100625.45;3540106;82;99224;-83
2022/04/26 17:31:26;;;;;;;7.43;2.43;;;;;;;15.80;44.04;100629.18;3496863;82;98910;-83
2022/04/26 17:36:29;;;;;;;6.60;2.60;;;;;;;15.63;44.36;100633.64;3484372;82;98725;-83
2022/04/26 17:41:31;;;;;;;5.60;2.55;;;;;;;15.52;44.63;100637.66;3480254;83;98783;-83
2022/04/26 17:46:33;;;;;;;7.72;2.92;;;;;;;15.41;45.23;100634.95;3484359;83;99293;-84
2022/04/26 17:51:34;;;;;;;5.05;2.58;;;;;;;15.30;45.59;100638.34;3478740;83;99302;-83
2022/04/26 17:56:38;;;;;;;8.00;3.17;;;;;;;15.16;45.63;100645.94;3484693;83;99195;-85
2022/04/26 18:01:39;;;;;;;6.80;3.15;;;;;;;14.95;46.54;100655.13;3477636;83;98949;-84
2022/04/26 18:06:40;;;;;;;5.92;3.35;;;;;;;14.79;46.68;100659.52;3486423;83;98701;-85
2022/04/26 18:11:41;;;;;;;7.05;3.20;;;;;;;14.68;47.20;100659.55;3479615;82;99140;-84
2022/04/26 18:16:42;;;;;;;12.03;4.73;;;;;;;14.55;47.25;100668.67;3487195;83;99253;-85
2022/04/26 18:21:43;;;;;;;9.37;4.33;;;;;;;14.35;47.37;100682.72;3480897;83;99083;-85
2022/04/26 18:26:44;;;;;;;12.50;4.83;;;;;;;14.17;48.00;100681.30;3485895;83;98861;-84
2022/04/26 18:31:47;;;;;;;9.73;4.63;;;;;;;13.99;48.74;100692.95;3515312;82;99044;-84
2022/04/26 18:36:53;;;;;;;8.83;4.42;;;;;;;13.85;49.08;100697.67;3543803;83;98529;-83
2022/04/26 18:41:56;;;;;;;11.38;4.05;;;;;;;13.65;50.03;100702.77;3520164;82;98821;-83
2022/04/26 18:46:57;;;;;;;8.77;4.60;;;;;;;13.53;50.76;100703.70;3530079;82;99409;-83
2022/04/26 18:51:58;;;;;;;10.17;5.63;;;;;;;13.42;51.33;100716.09;3527829;82;98782;-84
2022/04/26 18:56:58;;;;;;;9.87;4.80;;;;;;;13.31;51.43;100724.16;3542958;82;98978;-83
2022/04/26 19:01:59;;;;;;;11.40;5.43;;;;;;;13.10;52.35;100728.19;3534716;82;98942;-81
2022/04/26 19:07:00;;;;;;;10.97;5.60;;;;;;;13.01;53.15;100732.68;3545118;82;26488;-83
2022/04/26 19:12:18;;;;;;;13.73;6.57;;;;;;;12.88;53.21;100739.68;3530863;81;99108;-82
2022/04/26 19:17:20;;;;;;;10.35;5.95;;;;;;;12.74;53.44;100742.91;3537222;83;98811;-82
2022/04/26 19:22:21;;;;;;;9.30;6.40;;;;;;;12.62;54.31;100750.92;3517213;82;99449;-82
2022/04/26 19:27:22;;;;;;;10.43;7.07;;;;;;;12.52;54.39;100754.39;3538542;81;99222;-81
2022/04/26 19:32:23;;;;;;;11.13;6.43;;;;;;;12.46;54.44;100758.67;3531840;82;99020;-82
2022/04/26 19:37:24;;;;;;;11.17;7.53;;;;;;;12.42;54.60;100763.37;3537567;82;25862;-82
2022/04/26 19:42:25;;;;;;;19.13;11.87;;;;;;;12.34;54.97;100767.83;3519839;82;98939;-83
2022/04/26 19:47:26;;;;;;;14.67;9.20;;;;;;;12.28;55.54;100771.53;3546420;82;99492;-83
2022/04/26 19:52:27;;;;;;;16.80;10.60;;;;;;;12.24;56.41;100769.31;3522554;82;99358;-83
2022/04/26 19:57:28;;;;;;;20.33;12.47;;;;;;;12.18;56.32;100772.22;3543902;82;99669;-83
2022/04/26 20:02:28;;;;;;;35.20;24.03;;;;;;;12.07;56.45;100771.89;3530380;82;99691;-82
2022/04/26 20:07:33;;;;;;;38.08;25.57;;;;;;;11.95;56.73;100770.78;3541740;83;26383;-83
2022/04/26 20:12:35;;;;;;;23.95;13.93;;;;;;;11.86;57.33;100766.95;3537377;82;99513;-83
2022/04/26 20:17:36;;;;;;;23.17;14.23;;;;;;;11.78;57.26;100773.53;3543132;82;99451;-82
2022/04/26 20:22:38;;;;;;;22.00;13.50;;;;;;;11.76;57.83;100781.41;3535954;82;99839;-83
2022/04/26 20:32:59;;;;;;;21.87;13.00;;;;;;;11.69;58.88;100773.05;3501262;82;99595;-80
2022/04/26 20:38:01;;;;;;;24.87;14.87;;;;;;;11.61;58.88;100777.48;3499825;83;99641;-80
2022/04/26 20:43:02;;;;;;;24.60;13.22;;;;;;;11.56;59.38;100784.06;3493106;83;99132;-80
2022/04/26 20:48:04;;;;;;;29.10;15.90;;;;;;;11.52;59.99;100783.82;3488640;83;99482;-80
2022/04/26 20:53:05;;;;;;;30.67;14.93;;;;;;;11.33;60.25;100788.89;3482352;84;99789;-80
2022/04/26 20:58:06;;;;;;;24.10;13.70;;;;;;;11.33;60.25;100788.89;3487211;83;99691;-80
2022/04/26 21:03:07;;;;;;;27.07;14.73;;;;;;;11.21;60.83;100799.33;3482715;83;99217;-80
2022/04/26 21:08:08;;;;;;;22.70;10.93;;;;;;;11.10;61.80;100801.94;3494216;83;105482;-80
2022/04/26 21:13:24;;;;;;;21.73;10.20;;;;;;;11.05;62.22;100798.12;3484640;83;99347;-80
2022/04/26 21:18:25;;;;;;;22.20;12.40;;;;;;;10.98;62.64;100806.30;3488720;83;99050;-81
2022/04/26 21:23:27;;;;;;;24.03;13.07;;;;;;;10.98;62.69;100806.30;3466419;83;99192;-80
2022/04/26 21:28:28;;;;;;;23.13;12.97;;;;;;;10.96;62.89;100819.63;3488910;83;99290;-81
2022/04/26 21:33:29;;;;;;;89.10;34.40;;;;;;;10.91;63.16;100808.91;3529990;82;99160;-81
2022/04/26 21:38:32;;;;;;;59.13;24.30;;;;;;;10.83;63.49;100819.63;3548441;82;99585;-81
2022/04/26 21:43:34;;;;;;;36.33;16.97;;;;;;;10.74;63.91;100819.66;3540108;82;99223;-81
2022/04/26 21:48:35;;;;;;;39.78;18.62;;;;;;;10.68;63.48;100823.30;3549024;82;99048;-81
2022/04/26 21:53:36;;;;;;;27.50;14.83;;;;;;;10.68;63.85;100825.27;3542268;83;99297;-81
2022/04/26 21:58:37;;;;;;;22.07;11.73;;;;;;;10.58;63.87;100830.01;3548777;82;99183;-81
2022/04/26 22:03:39;;;;;;;18.87;9.67;;;;;;;10.56;63.80;100828.19;3524178;82;99302;-81
2022/04/26 22:08:40;;;;;;;16.33;8.40;;;;;;;10.53;63.77;100828.94;3546723;82;99053;-81
2022/04/26 22:13:41;;;;;;;15.80;8.97;;;;;;;10.48;63.84;100836.89;3543754;82;99397;-81
2022/04/26 22:18:42;;;;;;;18.50;8.53;;;;;;;10.43;64.07;100829.54;3548831;82;98875;-81
2022/04/26 22:23:44;;;;;;;17.60;8.83;;;;;;;10.31;64.39;100833.24;3542133;82;99225;-81
2022/04/26 22:28:45;;;;;;;16.13;8.70;;;;;;;10.22;64.64;100837.39;3548726;82;99571;-81
2022/04/26 22:33:45;;;;;;;18.00;9.00;;;;;;;10.15;65.03;100847.67;3537669;82;99405;-81
2022/04/26 22:38:46;;;;;;;16.17;8.83;;;;;;;10.05;65.71;100838.66;3525026;83;99184;-81
2022/04/26 22:43:47;;;;;;;16.80;9.43;;;;;;;9.92;66.02;100840.52;3537467;82;98924;-81
2022/04/26 22:48:48;;;;;;;17.77;9.03;;;;;;;9.86;65.84;100852.97;3542756;82;98444;-81
2022/04/26 22:53:50;;;;;;;19.57;8.48;;;;;;;9.80;66.09;100855.20;3536478;82;98837;-81
2022/04/26 22:58:51;;;;;;;13.90;6.78;;;;;;;9.71;66.48;100857.95;3540644;82;98722;-81
2022/04/26 23:03:52;;;;;;;15.40;7.40;;;;;;;9.64;65.73;100865.45;3535951;83;98905;-81
2022/04/26 23:08:53;;;;;;;15.00;7.33;;;;;;;9.57;65.84;100870.80;3542393;82;99037;-81
2022/04/26 23:13:54;;;;;;;13.63;7.37;;;;;;;9.46;65.82;100862.09;3538031;82;98652;-81
2022/04/26 23:18:56;;;;;;;13.03;6.53;;;;;;;9.30;65.99;100869.00;3542626;81;98685;-80
2022/04/26 23:23:57;;;;;;;13.13;6.17;;;;;;;9.13;66.14;100879.00;3535532;81;98621;-80
2022/04/26 23:28:57;;;;;;;14.20;6.33;;;;;;;9.03;66.36;100886.41;3527029;82;99022;-80
2022/04/26 23:39:22;;;;;;;12.60;6.20;;;;;;;8.90;66.86;100879.39;3528252;82;98656;-80
2022/04/26 23:44:21;;;;;;;16.23;7.47;;;;;;;8.84;66.71;100882.19;3536164;82;99039;-80
2022/04/26 23:49:22;;;;;;;14.47;6.73;;;;;;;8.61;67.13;100879.84;3530164;82;31882;-79
2022/04/26 23:54:23;;;;;;;15.40;7.87;;;;;;;8.47;67.85;100874.56;3521885;82;98723;-80
2022/04/26 23:59:23;;;;;;;12.80;6.13;;;;;;;8.45;67.93;100874.91;3528396;82;98479;-80
